• Join FlightAware (Why Join?)
  • Login
  • US Flag 
05:32AM EST


 

Airport Tracker/Info


-or-


 

Live Flight TrackerFlight Track Log ✈ SWA378 ✈ 03-May-2013 ✈ KATL - KORF

Flight Track Log - Related Links

Times and Time Zones

All times are in EDT time to prevent confusion due to time zone crossing. See the SWA378 flight status page for this flight to view local times or setup timezone preferences in your user account.

Time Position Orientation Groundspeed Altitude Reporting Facility
EDT Latitude Longitude Course Direction KTS MPH feet Rate Location/Type
06:35PM 33.6333 -84.4000 90° East 149 171 2,500  Level Atlanta TRACON
06:36PM 33.6333 -84.3333 90° East 210 242 4,300 2,760 Climbing Atlanta TRACON
06:37PM 33.6333 -84.2500 90° East 244 281 8,100 3,360 Climbing Atlanta TRACON
06:38PM 33.6356 -84.0911 89° East 290 334 13,400 2,760 Climbing Atlanta Center
06:39PM 33.6419 -83.9764 86° East 324 373 15,600 2,640 Climbing Atlanta Center
06:40PM 33.6481 -83.8467 87° East 373 429 18,700 2,880 Climbing Atlanta Center
06:41PM 33.6561 -83.7169 86° East 386 444 21,400 2,460 Climbing Atlanta Center
06:42PM 33.6847 -83.5794 76° East 405 466 23,700 2,100 Climbing Atlanta Center
06:43PM 33.7303 -83.4644 65° Northeast 421 484 25,700 1,860 Climbing Atlanta Center
06:44PM 33.7881 -83.3289 63° Northeast 434 499 27,500 1,800 Climbing Atlanta Center
06:46PM 33.8967 -83.0478 65° Northeast 460 529 31,100 1,860 Climbing Atlanta Center
06:47PM 33.9561 -82.9094 63° Northeast 468 539 33,100 1,800 Climbing Atlanta Center
06:48PM 34.0131 -82.7683 64° Northeast 468 539 34,800 1,560 Climbing Atlanta Center
06:49PM 34.0700 -82.6244 64° Northeast 462 532 36,300 1,500 Climbing Atlanta Center
06:50PM 34.1286 -82.4728 65° Northeast 462 532 37,800 840 Climbing Atlanta Center
06:51PM 34.1853 -82.3311 62° Northeast 457 526 38,000 60 Climbing Atlanta Center
06:52PM 34.1696 -82.3339 62° Northeast  Level FlightAware Approximate
06:52PM 34.2375 -82.1894 66° East 457 526 38,000  Level Atlanta Center
06:53PM 34.3019 -82.0522 60° Northeast 457 526 38,600 480 Climbing Atlanta Center
06:54PM 34.3686 -81.9197 59° Northeast 462 532 39,000 180 Climbing Atlanta Center
06:55PM 34.4372 -81.7872 58° Northeast 462 532 39,000  Level Atlanta Center
06:56PM 34.5014 -81.6517 60° Northeast 462 532 39,000  Level Atlanta Center
06:57PM 34.5697 -81.5186 58° Northeast 462 532 39,000  Level Atlanta Center
06:58PM 34.6339 -81.3856 60° Northeast 462 532 39,000  Level Atlanta Center
06:59PM 34.6978 -81.2547 59° Northeast 452 520 39,000  Level Atlanta Center
07:00PM 34.7633 -81.1208 59° Northeast 458 527 39,000  Level Atlanta Center
07:01PM 34.8292 -80.9922 58° Northeast 451 519 39,000  Level Atlanta Center
07:02PM 34.8944 -80.8506 61° Northeast 457 526 39,000  Level Atlanta Center
07:03PM 34.9597 -80.7186 59° Northeast 457 526 39,000  Level Atlanta Center
07:06PM 35.1164 -80.3961 59° Northeast 457 526 39,000  Level Washington Center
07:07PM 35.1825 -80.2578 60° Northeast 457 526 39,000  Level Washington Center
07:08PM 35.2439 -80.1239 61° Northeast 452 520 39,000  Level Washington Center
07:09PM 35.2950 -79.9869 65° Northeast 447 514 39,000  Level Washington Center
07:10PM 35.3397 -79.8417 69° East 447 514 39,000 -120 Level Washington Center
07:11PM 35.3847 -79.6936 70° East 447 514 38,800 -660 Descending Washington Center
07:12PM 35.4294 -79.5456 70° East 452 520 37,800 -1,020 Descending Washington Center
07:13PM 35.4803 -79.3925 68° East 465 535 36,800 -1,020 Descending Washington Center
07:14PM 35.5244 -79.2442 70° East 470 541 35,800 -900 Descending Washington Center
07:15PM 35.5661 -79.1056 70° East 470 541 35,000 -960 Descending Washington Center
07:16PM 35.6147 -78.9442 70° East 460 529 34,000 -1,020 Descending Washington Center
07:17PM 35.6606 -78.7928 70° East 460 529 33,000 -1,020 Descending Washington Center
07:18PM 35.7083 -78.6411 69° East 465 535 32,000 -960 Descending Washington Center
07:19PM 35.7517 -78.4867 71° East 465 535 31,100 -960 Descending Washington Center
07:20PM 35.7950 -78.3372 70° East 465 535 30,100 -1,020 Descending Washington Center
07:21PM 35.8381 -78.1875 70° East 465 535 29,100 -960 Descending Washington Center
07:22PM 35.8761 -78.0606 70° East 452 520 28,200 -960 Descending Washington Center
07:23PM 35.9142 -77.9233 71° East 441 507 27,200 -1,020 Descending Washington Center
07:24PM 35.9567 -77.7858 69° East 430 495 26,200 -1,560 Descending Washington Center
07:25PM 36.0006 -77.6561 67° East 420 483 24,100 -2,280 Descending Washington Center
07:26PM 36.0567 -77.5394 59° Northeast 402 463 21,800 -1,620 Descending Washington Center
07:27PM 36.1108 -77.4253 60° Northeast 388 447 21,000 -420 Descending Washington Center
07:28PM 36.1644 -77.3158 59° Northeast 370 426 21,000  Level Washington Center
07:29PM 36.2142 -77.2061 61° Northeast 364 419 21,000 -900 Level Washington Center
07:30PM 36.2675 -77.0992 58° Northeast 364 419 19,300 -1,920 Descending Washington Center
07:30PM 36.2806 -77.0708 60° Northeast 359 413 18,700 -1,620 Descending Washington Center
07:31PM 36.3147 -76.9942 61° Northeast 353 406 17,700 -1,620 Descending Washington Center
07:31PM 36.3297 -76.9661 56° Northeast 343 395 17,100 -2,220 Descending Washington Center
07:32PM 36.3619 -76.8919 62° Northeast 348 400 15,500 -2,460 Descending Washington Center
07:32PM 36.3831 -76.8692 41° Northeast 346 398 14,600 -3,060 Descending Washington Center
07:33PM 36.4275 -76.8000 51° Northeast 348 400 12,400 -3,120 Descending Washington Center
07:33PM 36.4464 -76.7772 44° Northeast 356 410 11,500 -2,340 Descending Washington Center
07:34PM 36.4908 -76.7081 51° Northeast 348 400 10,200 -1,380 Descending Washington Center
07:34PM 36.5142 -76.6825 41° Northeast 318 366 10,100 -540 Descending Washington Center
07:35PM 36.5458 -76.6314 52° Northeast 328 377 9,700 -1,440 Descending Washington Center
07:35PM 36.5628 -76.6056 51° Northeast 264 304 8,700 -2,280 Descending Washington Center
07:36PM 36.5922 -76.5619 50° Northeast 290 334 7,400 -2,220 Descending Washington Center
07:36PM 36.6114 -76.5364 47° Northeast 268 308 6,500 -2,040 Descending Washington Center
07:37PM 36.6408 -76.4953 48° Northeast 264 304 5,400 -1,920 Descending Washington Center
07:37PM 36.6578 -76.4697 50° Northeast 256 295 4,600 -1,740 Descending Washington Center
07:38PM 36.6853 -76.4286 50° Northeast 259 298 3,700 -840 Descending Washington Center
07:39PM 36.7336 -76.3592 49° Northeast 220 253 3,100 -660 Descending Washington Center
07:40PM 36.7736 -76.3153 41° Northeast 213 245 2,500 -600 Descending Washington Center
07:41PM 36.8197 -76.2769 34° Northeast 175 201 2,000 -660 Descending Washington Center
07:42PM 36.8531 -76.2461 37° Northeast 136 157 1,100 -900 Descending Washington Center